Nisyros — ZDKC2 — position and weather

sailwx.info

Track history (hours):
 
Tides and Currents Weather Stations Pressure Air Temp Water Temp Dewpoint Dewpoint Depression Visibility Wind Speed Wind Dir Waves Ship Positions

Nisyros

Last reported at 2018-Jan-19 21:14 UTC. Time now 2018-Jan-20 03:41 UTC.
Position N 36°09' W 005°22'.

Length 102 m; draft 7.2 m.

Type: Tanker. MMSI: 236590000.

Date/timePositionNaut miles runAvg speedWind from/ knotsBaromVisibWave heightAir tempDewpointWater temp
2018-Jan-19 21:14N 36°09' W 005°22'0 0.0
2018-Jan-19 20:59N 36°09' W 005°22'0 0.0
2018-Jan-19 20:29N 36°09' W 005°22'0 0.0
2018-Jan-19 19:59N 36°09' W 005°22'0 0.0
2018-Jan-19 19:29N 36°09' W 005°22'0 0.0
2018-Jan-19 18:59N 36°09' W 005°22'0 0.0
2018-Jan-19 18:17N 36°09' W 005°22'0 0.0
2018-Jan-19 17:59N 36°09' W 005°22'0 0.0
2018-Jan-19 17:29N 36°09' W 005°22'0 0.0
2018-Jan-19 16:11N 36°09' W 005°22'0 0.0
2018-Jan-19 15:56N 36°09' W 005°22'0 0.0
2018-Jan-19 15:26N 36°09' W 005°22'0 0.0
2018-Jan-19 14:59N 36°09' W 005°22'0 0.0
2018-Jan-19 14:29N 36°09' W 005°22'0 0.0
2018-Jan-19 13:56N 36°09' W 005°22'0 0.0
2018-Jan-19 13:29N 36°09' W 005°22'0 0.0
2018-Jan-19 12:59N 36°09' W 005°22'0 0.0
2018-Jan-19 12:29N 36°09' W 005°22'1 1.6
2018-Jan-19 12:00N 36°08' W 005°22'5 9.5
2018-Jan-19 11:30N 36°03' W 005°23'510.5
2018-Jan-19 11:00N 35°58' W 005°25'5 9.2
2018-Jan-19 10:30N 35°55' W 005°29'2 3.3
2018-Jan-19 09:57N 35°54' W 005°30'0 0.0
2018-Jan-19 08:51N 35°54' W 005°30'0 0.0
2018-Jan-19 08:15N 35°54' W 005°30'0 0.0
2018-Jan-19 07:57N 35°54' W 005°30'0 0.0
2018-Jan-19 06:27N 35°54' W 005°30'0 0.0
2018-Jan-18 23:45N 35°54' W 005°30'0 0.8
2018-Jan-18 23:31N 35°54' W 005°30'2 4.6
2018-Jan-18 22:59N 35°55' W 005°33'0 0.3
2018-Jan-18 22:30N 35°55' W 005°33'0 0.5
2018-Jan-18 22:00N 35°55' W 005°33'1 2.7
2018-Jan-18 21:30N 35°55' W 005°31'4 7.5
2018-Jan-18 21:00N 35°58' W 005°29'510.2
2018-Jan-18 20:30N 36°02' W 005°24'510.3
2018-Jan-18 20:01N 36°07' W 005°22'1 1.2
2018-Jan-18 19:30N 36°07' W 005°22'0 0.1
2018-Jan-18 19:00N 36°07' W 005°22'0 0.0
2018-Jan-18 18:27N 36°07' W 005°22'0 0.1
2018-Jan-18 18:00N 36°07' W 005°22'0 0.1
2018-Jan-18 17:30N 36°07' W 005°21'0 0.1
2018-Jan-18 17:00N 36°07' W 005°21'0 0.3
2018-Jan-18 16:30N 36°07' W 005°22'0 0.1
2018-Jan-18 15:51N 36°07' W 005°22'0 0.0
2018-Jan-18 15:24N 36°07' W 005°22'0 0.1
2018-Jan-18 14:57N 36°07' W 005°22'0 0.0
2018-Jan-18 14:18N 36°07' W 005°22'0 0.1
2018-Jan-18 13:54N 36°07' W 005°22'0 0.1
2018-Jan-18 13:30N 36°07' W 005°22'1 1.2
2018-Jan-18 12:59N 36°07' W 005°22'0 0.0
2018-Jan-18 12:23N 36°07' W 005°22'0 0.1
2018-Jan-18 11:53N 36°07' W 005°22'0 0.1
2018-Jan-18 11:29N 36°07' W 005°22'0 0.1
2018-Jan-18 10:53N 36°07' W 005°22'0 0.0
2018-Jan-18 10:26N 36°07' W 005°22'0 0.0
2018-Jan-18 09:50N 36°07' W 005°22'0 0.1
2018-Jan-18 09:26N 36°07' W 005°22'0 0.0
2018-Jan-18 08:47N 36°07' W 005°22'0 0.1
2018-Jan-18 08:29N 36°07' W 005°22'0 0.0
2018-Jan-18 07:59N 36°07' W 005°22'0 0.0
2018-Jan-18 07:08N 36°07' W 005°22'0 0.0
2018-Jan-18 06:53N 36°07' W 005°22'0 0.0
2018-Jan-18 06:29N 36°07' W 005°22'0 0.1
2018-Jan-18 05:53N 36°07' W 005°22'0 0.0
2018-Jan-18 05:26N 36°07' W 005°22'0 0.1
2018-Jan-18 04:53N 36°07' W 005°22'0 0.1
2018-Jan-18 04:20N 36°07' W 005°22'0 0.1
2018-Jan-18 03:47N 36°07' W 005°22'0 0.1
2018-Jan-18 03:23N 36°07' W 005°22'0 0.2
2018-Jan-18 02:59N 36°07' W 005°22'0 0.1
2018-Jan-18 02:29N 36°07' W 005°22'0 0.1
2018-Jan-18 01:47N 36°07' W 005°22'0 0.3
2018-Jan-18 01:20N 36°07' W 005°22'0 0.0
2018-Jan-18 00:08N 36°07' W 005°22'0 0.2
2018-Jan-17 23:47N 36°07' W 005°22'  
2018-Jan-12 14:58N 36°06' W 005°21'0 0.0
2018-Jan-12 14:28N 36°06' W 005°21'0 0.0
2018-Jan-12 13:58N 36°06' W 005°21'0 0.0
2018-Jan-12 13:28N 36°06' W 005°21'0 0.0
2018-Jan-12 12:55N 36°06' W 005°21'0 0.1
2018-Jan-12 12:28N 36°06' W 005°21'0 0.0
2018-Jan-12 12:00N 36°06' W 005°21'0 0.1
2018-Jan-12 11:28N 36°06' W 005°21'0 0.1
2018-Jan-12 10:59N 36°06' W 005°21'0 0.8
2018-Jan-12 10:30N 36°06' W 005°22'3 5.8
2018-Jan-12 10:00N 36°09' W 005°22'0 0.1
2018-Jan-12 09:30N 36°09' W 005°22'0 0.0
2018-Jan-12 09:00N 36°09' W 005°22'0 0.1
2018-Jan-12 08:30N 36°09' W 005°22'0 0.0
2018-Jan-12 08:00N 36°09' W 005°22'0 0.0
2018-Jan-12 07:30N 36°09' W 005°22'0 0.0
2018-Jan-12 07:00N 36°09' W 005°22'0 0.1
2018-Jan-12 06:30N 36°09' W 005°22'0 0.0
2018-Jan-12 06:00N 36°09' W 005°22'0 0.0
2018-Jan-12 05:30N 36°09' W 005°22'0 0.0
2018-Jan-12 05:00N 36°09' W 005°22'0 0.0
2018-Jan-12 04:30N 36°09' W 005°22'0 0.0
2018-Jan-12 04:00N 36°09' W 005°22'0 0.0
2018-Jan-12 03:30N 36°09' W 005°22'0 0.1
2018-Jan-12 03:00N 36°09' W 005°22'0 0.1
2018-Jan-12 02:31N 36°09' W 005°22'3 5.5
2018-Jan-12 02:00N 36°06' W 005°22'5 9.7
2018-Jan-12 01:30N 36°02' W 005°22'611.7
2018-Jan-12 01:01N 35°57' W 005°27'4 8.2
2018-Jan-12 00:29N 35°54' W 005°30'0 0.0
2018-Jan-11 23:52N 35°54' W 005°30'0 0.1
2018-Jan-11 23:27N 35°54' W 005°30'0 0.0
2018-Jan-11 22:16N 35°54' W 005°30'0 0.0
2018-Jan-11 21:55N 35°54' W 005°30'0 0.0
2018-Jan-11 19:16N 35°54' W 005°30'0 0.0
2018-Jan-11 18:35N 35°54' W 005°30'0 0.0
2018-Jan-11 16:11N 35°54' W 005°30'0 0.0
2018-Jan-11 15:43N 35°54' W 005°30'0 0.0
2018-Jan-11 13:05N 35°54' W 005°30'0 0.6
2018-Jan-11 13:00N 35°54' W 005°30'2 3.2
2018-Jan-11 12:30N 35°54' W 005°32'0 0.8
2018-Jan-11 12:00N 35°55' W 005°32'0 0.2
2018-Jan-11 11:30N 35°55' W 005°32'1 1.1
2018-Jan-11 11:00N 35°54' W 005°32'3 6.4
2018-Jan-11 10:30N 35°57' W 005°30'4 8.3
2018-Jan-11 10:00N 35°60' W 005°26'4 8.1
2018-Jan-11 09:30N 36°03' W 005°23'5 9.8
2018-Jan-11 09:00N 36°08' W 005°23'0 0.9
2018-Jan-11 08:29N 36°08' W 005°22'0 0.0
2018-Jan-11 07:58N 36°08' W 005°22'0 0.1
2018-Jan-11 07:28N 36°08' W 005°22'0 0.2
2018-Jan-11 06:59N 36°08' W 005°22'0 0.1
2018-Jan-11 06:28N 36°08' W 005°23'0 0.0
2018-Jan-11 05:58N 36°08' W 005°23'0 0.1
2018-Jan-11 05:28N 36°08' W 005°22'0 0.0
2018-Jan-11 04:58N 36°08' W 005°22'0 0.0
2018-Jan-11 04:28N 36°08' W 005°22'0 0.0
2018-Jan-11 03:58N 36°08' W 005°22'0 0.0
2018-Jan-11 03:28N 36°08' W 005°22'0 0.0
2018-Jan-11 02:55N 36°08' W 005°22'0 0.1
2018-Jan-11 02:28N 36°08' W 005°22'0 0.0
2018-Jan-11 01:58N 36°08' W 005°22'0 0.0
2018-Jan-11 01:30N 36°08' W 005°22'0 0.0
2018-Jan-11 00:58N 36°08' W 005°23'0 0.0
2018-Jan-11 00:28N 36°08' W 005°22'0 0.1
2018-Jan-10 23:58N 36°08' W 005°22'0 0.0
2018-Jan-10 23:28N 36°08' W 005°22'0 0.0
2018-Jan-10 22:58N 36°08' W 005°22'0 0.2
2018-Jan-10 22:29N 36°08' W 005°22'0 0.0
2018-Jan-10 21:55N 36°08' W 005°22'0 0.0
2018-Jan-10 21:28N 36°08' W 005°22'0 0.0
2018-Jan-10 20:59N 36°08' W 005°22'0 0.5
2018-Jan-10 20:30N 36°08' W 005°22'0 0.5
2018-Jan-10 19:59N 36°09' W 005°22'0 0.0
2018-Jan-10 19:29N 36°08' W 005°22'0 0.0
2018-Jan-10 18:59N 36°09' W 005°22'0 0.0
2018-Jan-10 18:29N 36°08' W 005°22'0 0.0
2018-Jan-10 18:00N 36°09' W 005°22'0 0.1
2018-Jan-10 17:29N 36°08' W 005°22'0 0.0
2018-Jan-10 16:56N 36°08' W 005°22'0 0.0
2018-Jan-10 16:29N 36°08' W 005°22'1 1.4
2018-Jan-10 16:01N 36°08' W 005°22'0 0.9
2018-Jan-10 15:29N 36°07' W 005°22'0 0.0
2018-Jan-10 14:59N 36°07' W 005°22'0 0.0
2018-Jan-10 14:29N 36°07' W 005°22'0 0.2
2018-Jan-10 13:59N 36°07' W 005°22'0 0.2
2018-Jan-10 13:26N 36°07' W 005°22'0 0.0
2018-Jan-10 12:59N 36°07' W 005°22'0 0.1
2018-Jan-10 12:29N 36°07' W 005°22'0 0.0
2018-Jan-10 11:59N 36°07' W 005°22'0 0.1
2018-Jan-10 11:29N 36°07' W 005°22'0 0.1
2018-Jan-10 10:59N 36°07' W 005°22'0 0.0
2018-Jan-10 10:29N 36°07' W 005°22'0 0.1
2018-Jan-10 09:59N 36°07' W 005°22'0 0.0
2018-Jan-10 09:29N 36°07' W 005°22'0 0.0
2018-Jan-10 08:59N 36°07' W 005°22'0 0.1
2018-Jan-10 08:29N 36°07' W 005°22'0 0.1
2018-Jan-10 07:59N 36°07' W 005°22'0 0.1
2018-Jan-10 07:26N 36°07' W 005°22'0 0.0
2018-Jan-10 06:59N 36°07' W 005°22'0 0.1
2018-Jan-10 06:29N 36°07' W 005°22'0 0.1
2018-Jan-10 05:56N 36°07' W 005°22'0 0.1
2018-Jan-10 05:23N 36°07' W 005°22'0 0.1
2018-Jan-10 04:59N 36°07' W 005°22'0 0.0
2018-Jan-10 04:29N 36°07' W 005°22'0 0.2
2018-Jan-10 03:59N 36°07' W 005°22'0 0.2
2018-Jan-10 03:29N 36°07' W 005°22'0 0.2
2018-Jan-10 02:59N 36°08' W 005°22'0 0.0
2018-Jan-10 02:29N 36°08' W 005°22'0 0.0
2018-Jan-10 01:59N 36°08' W 005°22'0 0.0
2018-Jan-10 01:29N 36°08' W 005°22'0 0.1
2018-Jan-10 00:59N 36°08' W 005°22'0 0.0
2018-Jan-10 00:29N 36°08' W 005°22'0 0.2
2018-Jan-09 23:59N 36°08' W 005°22'0 0.2
2018-Jan-09 23:29N 36°08' W 005°23'0 0.2
2018-Jan-09 22:59N 36°08' W 005°22'0 0.0
2018-Jan-09 22:29N 36°08' W 005°22'0 0.1
2018-Jan-09 21:59N 36°08' W 005°22'0 0.1
2018-Jan-09 21:29N 36°08' W 005°23'  
Track history (hours):
 
Tides and Currents Weather Stations Pressure Air Temp Water Temp Dewpoint Dewpoint Depression Visibility Wind Speed Wind Dir Waves Ship Positions

Nisyros

Last reported at 2018-Jan-19 21:14 UTC. Time now 2018-Jan-20 03:41 UTC.
Position N 36°09' W 005°22'.

Length 102 m; draft 7.2 m.

Type: Tanker. MMSI: 236590000.

Date/timePositionNaut miles runAvg speedWind from/ knotsBaromVisibWave heightAir tempDewpointWater temp
2018-Jan-19 21:14N 36°09' W 005°22'0 0.0
2018-Jan-19 20:59N 36°09' W 005°22'0 0.0
2018-Jan-19 20:29N 36°09' W 005°22'0 0.0
2018-Jan-19 19:59N 36°09' W 005°22'0 0.0
2018-Jan-19 19:29N 36°09' W 005°22'0 0.0
2018-Jan-19 18:59N 36°09' W 005°22'0 0.0
2018-Jan-19 18:17N 36°09' W 005°22'0 0.0
2018-Jan-19 17:59N 36°09' W 005°22'0 0.0
2018-Jan-19 17:29N 36°09' W 005°22'0 0.0
2018-Jan-19 16:11N 36°09' W 005°22'0 0.0
2018-Jan-19 15:56N 36°09' W 005°22'0 0.0
2018-Jan-19 15:26N 36°09' W 005°22'0 0.0
2018-Jan-19 14:59N 36°09' W 005°22'0 0.0
2018-Jan-19 14:29N 36°09' W 005°22'0 0.0
2018-Jan-19 13:56N 36°09' W 005°22'0 0.0
2018-Jan-19 13:29N 36°09' W 005°22'0 0.0
2018-Jan-19 12:59N 36°09' W 005°22'0 0.0
2018-Jan-19 12:29N 36°09' W 005°22'1 1.6
2018-Jan-19 12:00N 36°08' W 005°22'5 9.5
2018-Jan-19 11:30N 36°03' W 005°23'510.5
2018-Jan-19 11:00N 35°58' W 005°25'5 9.2
2018-Jan-19 10:30N 35°55' W 005°29'2 3.3
2018-Jan-19 09:57N 35°54' W 005°30'0 0.0
2018-Jan-19 08:51N 35°54' W 005°30'0 0.0
2018-Jan-19 08:15N 35°54' W 005°30'0 0.0
2018-Jan-19 07:57N 35°54' W 005°30'0 0.0
2018-Jan-19 06:27N 35°54' W 005°30'0 0.0
2018-Jan-18 23:45N 35°54' W 005°30'0 0.8
2018-Jan-18 23:31N 35°54' W 005°30'2 4.6
2018-Jan-18 22:59N 35°55' W 005°33'0 0.3
2018-Jan-18 22:30N 35°55' W 005°33'0 0.5
2018-Jan-18 22:00N 35°55' W 005°33'1 2.7
2018-Jan-18 21:30N 35°55' W 005°31'4 7.5
2018-Jan-18 21:00N 35°58' W 005°29'510.2
2018-Jan-18 20:30N 36°02' W 005°24'510.3
2018-Jan-18 20:01N 36°07' W 005°22'1 1.2
2018-Jan-18 19:30N 36°07' W 005°22'0 0.1
2018-Jan-18 19:00N 36°07' W 005°22'0 0.0
2018-Jan-18 18:27N 36°07' W 005°22'0 0.1
2018-Jan-18 18:00N 36°07' W 005°22'0 0.1
2018-Jan-18 17:30N 36°07' W 005°21'0 0.1
2018-Jan-18 17:00N 36°07' W 005°21'0 0.3
2018-Jan-18 16:30N 36°07' W 005°22'0 0.1
2018-Jan-18 15:51N 36°07' W 005°22'0 0.0
2018-Jan-18 15:24N 36°07' W 005°22'0 0.1
2018-Jan-18 14:57N 36°07' W 005°22'0 0.0
2018-Jan-18 14:18N 36°07' W 005°22'0 0.1
2018-Jan-18 13:54N 36°07' W 005°22'0 0.1
2018-Jan-18 13:30N 36°07' W 005°22'1 1.2
2018-Jan-18 12:59N 36°07' W 005°22'0 0.0
2018-Jan-18 12:23N 36°07' W 005°22'0 0.1
2018-Jan-18 11:53N 36°07' W 005°22'0 0.1
2018-Jan-18 11:29N 36°07' W 005°22'0 0.1
2018-Jan-18 10:53N 36°07' W 005°22'0 0.0
2018-Jan-18 10:26N 36°07' W 005°22'0 0.0
2018-Jan-18 09:50N 36°07' W 005°22'0 0.1
2018-Jan-18 09:26N 36°07' W 005°22'0 0.0
2018-Jan-18 08:47N 36°07' W 005°22'0 0.1
2018-Jan-18 08:29N 36°07' W 005°22'0 0.0
2018-Jan-18 07:59N 36°07' W 005°22'0 0.0
2018-Jan-18 07:08N 36°07' W 005°22'0 0.0
2018-Jan-18 06:53N 36°07' W 005°22'0 0.0
2018-Jan-18 06:29N 36°07' W 005°22'0 0.1
2018-Jan-18 05:53N 36°07' W 005°22'0 0.0
2018-Jan-18 05:26N 36°07' W 005°22'0 0.1
2018-Jan-18 04:53N 36°07' W 005°22'0 0.1
2018-Jan-18 04:20N 36°07' W 005°22'0 0.1
2018-Jan-18 03:47N 36°07' W 005°22'0 0.1
2018-Jan-18 03:23N 36°07' W 005°22'0 0.2
2018-Jan-18 02:59N 36°07' W 005°22'0 0.1
2018-Jan-18 02:29N 36°07' W 005°22'0 0.1
2018-Jan-18 01:47N 36°07' W 005°22'0 0.3
2018-Jan-18 01:20N 36°07' W 005°22'0 0.0
2018-Jan-18 00:08N 36°07' W 005°22'0 0.2
2018-Jan-17 23:47N 36°07' W 005°22'  
2018-Jan-12 14:58N 36°06' W 005°21'0 0.0
2018-Jan-12 14:28N 36°06' W 005°21'0 0.0
2018-Jan-12 13:58N 36°06' W 005°21'0 0.0
2018-Jan-12 13:28N 36°06' W 005°21'0 0.0
2018-Jan-12 12:55N 36°06' W 005°21'0 0.1
2018-Jan-12 12:28N 36°06' W 005°21'0 0.0
2018-Jan-12 12:00N 36°06' W 005°21'0 0.1
2018-Jan-12 11:28N 36°06' W 005°21'0 0.1
2018-Jan-12 10:59N 36°06' W 005°21'0 0.8
2018-Jan-12 10:30N 36°06' W 005°22'3 5.8
2018-Jan-12 10:00N 36°09' W 005°22'0 0.1
2018-Jan-12 09:30N 36°09' W 005°22'0 0.0
2018-Jan-12 09:00N 36°09' W 005°22'0 0.1
2018-Jan-12 08:30N 36°09' W 005°22'0 0.0
2018-Jan-12 08:00N 36°09' W 005°22'0 0.0
2018-Jan-12 07:30N 36°09' W 005°22'0 0.0
2018-Jan-12 07:00N 36°09' W 005°22'0 0.1
2018-Jan-12 06:30N 36°09' W 005°22'0 0.0
2018-Jan-12 06:00N 36°09' W 005°22'0 0.0
2018-Jan-12 05:30N 36°09' W 005°22'0 0.0
2018-Jan-12 05:00N 36°09' W 005°22'0 0.0
2018-Jan-12 04:30N 36°09' W 005°22'0 0.0
2018-Jan-12 04:00N 36°09' W 005°22'0 0.0
2018-Jan-12 03:30N 36°09' W 005°22'0 0.1
2018-Jan-12 03:00N 36°09' W 005°22'0 0.1
2018-Jan-12 02:31N 36°09' W 005°22'3 5.5
2018-Jan-12 02:00N 36°06' W 005°22'5 9.7
2018-Jan-12 01:30N 36°02' W 005°22'611.7
2018-Jan-12 01:01N 35°57' W 005°27'4 8.2
2018-Jan-12 00:29N 35°54' W 005°30'0 0.0
2018-Jan-11 23:52N 35°54' W 005°30'0 0.1
2018-Jan-11 23:27N 35°54' W 005°30'0 0.0
2018-Jan-11 22:16N 35°54' W 005°30'0 0.0
2018-Jan-11 21:55N 35°54' W 005°30'0 0.0
2018-Jan-11 19:16N 35°54' W 005°30'0 0.0
2018-Jan-11 18:35N 35°54' W 005°30'0 0.0
2018-Jan-11 16:11N 35°54' W 005°30'0 0.0
2018-Jan-11 15:43N 35°54' W 005°30'0 0.0
2018-Jan-11 13:05N 35°54' W 005°30'0 0.6
2018-Jan-11 13:00N 35°54' W 005°30'2 3.2
2018-Jan-11 12:30N 35°54' W 005°32'0 0.8
2018-Jan-11 12:00N 35°55' W 005°32'0 0.2
2018-Jan-11 11:30N 35°55' W 005°32'1 1.1
2018-Jan-11 11:00N 35°54' W 005°32'3 6.4
2018-Jan-11 10:30N 35°57' W 005°30'4 8.3
2018-Jan-11 10:00N 35°60' W 005°26'4 8.1
2018-Jan-11 09:30N 36°03' W 005°23'5 9.8
2018-Jan-11 09:00N 36°08' W 005°23'0 0.9
2018-Jan-11 08:29N 36°08' W 005°22'0 0.0
2018-Jan-11 07:58N 36°08' W 005°22'0 0.1
2018-Jan-11 07:28N 36°08' W 005°22'0 0.2
2018-Jan-11 06:59N 36°08' W 005°22'0 0.1
2018-Jan-11 06:28N 36°08' W 005°23'0 0.0
2018-Jan-11 05:58N 36°08' W 005°23'0 0.1
2018-Jan-11 05:28N 36°08' W 005°22'0 0.0
2018-Jan-11 04:58N 36°08' W 005°22'0 0.0
2018-Jan-11 04:28N 36°08' W 005°22'0 0.0
2018-Jan-11 03:58N 36°08' W 005°22'0 0.0
2018-Jan-11 03:28N 36°08' W 005°22'0 0.0
2018-Jan-11 02:55N 36°08' W 005°22'0 0.1
2018-Jan-11 02:28N 36°08' W 005°22'0 0.0
2018-Jan-11 01:58N 36°08' W 005°22'0 0.0
2018-Jan-11 01:30N 36°08' W 005°22'0 0.0
2018-Jan-11 00:58N 36°08' W 005°23'0 0.0
2018-Jan-11 00:28N 36°08' W 005°22'0 0.1
2018-Jan-10 23:58N 36°08' W 005°22'0 0.0
2018-Jan-10 23:28N 36°08' W 005°22'0 0.0
2018-Jan-10 22:58N 36°08' W 005°22'0 0.2
2018-Jan-10 22:29N 36°08' W 005°22'0 0.0
2018-Jan-10 21:55N 36°08' W 005°22'0 0.0
2018-Jan-10 21:28N 36°08' W 005°22'0 0.0
2018-Jan-10 20:59N 36°08' W 005°22'0 0.5
2018-Jan-10 20:30N 36°08' W 005°22'0 0.5
2018-Jan-10 19:59N 36°09' W 005°22'0 0.0
2018-Jan-10 19:29N 36°08' W 005°22'0 0.0
2018-Jan-10 18:59N 36°09' W 005°22'0 0.0
2018-Jan-10 18:29N 36°08' W 005°22'0 0.0
2018-Jan-10 18:00N 36°09' W 005°22'0 0.1
2018-Jan-10 17:29N 36°08' W 005°22'0 0.0
2018-Jan-10 16:56N 36°08' W 005°22'0 0.0
2018-Jan-10 16:29N 36°08' W 005°22'1 1.4
2018-Jan-10 16:01N 36°08' W 005°22'0 0.9
2018-Jan-10 15:29N 36°07' W 005°22'0 0.0
2018-Jan-10 14:59N 36°07' W 005°22'0 0.0
2018-Jan-10 14:29N 36°07' W 005°22'0 0.2
2018-Jan-10 13:59N 36°07' W 005°22'0 0.2
2018-Jan-10 13:26N 36°07' W 005°22'0 0.0
2018-Jan-10 12:59N 36°07' W 005°22'0 0.1
2018-Jan-10 12:29N 36°07' W 005°22'0 0.0
2018-Jan-10 11:59N 36°07' W 005°22'0 0.1
2018-Jan-10 11:29N 36°07' W 005°22'0 0.1
2018-Jan-10 10:59N 36°07' W 005°22'0 0.0
2018-Jan-10 10:29N 36°07' W 005°22'0 0.1
2018-Jan-10 09:59N 36°07' W 005°22'0 0.0
2018-Jan-10 09:29N 36°07' W 005°22'0 0.0
2018-Jan-10 08:59N 36°07' W 005°22'0 0.1
2018-Jan-10 08:29N 36°07' W 005°22'0 0.1
2018-Jan-10 07:59N 36°07' W 005°22'0 0.1
2018-Jan-10 07:26N 36°07' W 005°22'0 0.0
2018-Jan-10 06:59N 36°07' W 005°22'0 0.1
2018-Jan-10 06:29N 36°07' W 005°22'0 0.1
2018-Jan-10 05:56N 36°07' W 005°22'0 0.1
2018-Jan-10 05:23N 36°07' W 005°22'0 0.1
2018-Jan-10 04:59N 36°07' W 005°22'0 0.0
2018-Jan-10 04:29N 36°07' W 005°22'0 0.2
2018-Jan-10 03:59N 36°07' W 005°22'0 0.2
2018-Jan-10 03:29N 36°07' W 005°22'0 0.2
2018-Jan-10 02:59N 36°08' W 005°22'0 0.0
2018-Jan-10 02:29N 36°08' W 005°22'0 0.0
2018-Jan-10 01:59N 36°08' W 005°22'0 0.0
2018-Jan-10 01:29N 36°08' W 005°22'0 0.1
2018-Jan-10 00:59N 36°08' W 005°22'0 0.0
2018-Jan-10 00:29N 36°08' W 005°22'0 0.2
2018-Jan-09 23:59N 36°08' W 005°22'0 0.2
2018-Jan-09 23:29N 36°08' W 005°23'0 0.2
2018-Jan-09 22:59N 36°08' W 005°22'0 0.0
2018-Jan-09 22:29N 36°08' W 005°22'0 0.1
2018-Jan-09 21:59N 36°08' W 005°22'0 0.1
2018-Jan-09 21:29N 36°08' W 005°23'  

Dump ship's entire track history